Time;durP1;ratioP1;P1;durP2;ratioP2;P2;SDS_P1;SDS_P2;PMS_P1;PMS_P2;Temp;Humidity;BMP_temperature;BMP_pressure;BME280_temperature;BME280_humidity;BME280_pressure;Samples;Min_cycle;Max_cycle;Signal;HPM_P1;HPM_P2
2023/05/11 00:02:42;;;;;;;21.85;16.65;;;;;;;;;;6240327;28;20301;-80
2023/05/11 00:05:49;;;;;;;23.38;17.83;;;;;;;;;;6240686;28;20064;-80
2023/05/11 00:08:52;;;;;;;22.23;16.23;;;;;;;;;;6239672;28;20306;-79
2023/05/11 00:11:54;;;;;;;19.88;15.70;;;;;;;;;;6240614;28;20080;-80
2023/05/11 00:14:56;;;;;;;23.73;16.55;;;;;;;;;;6241771;28;20067;-80
2023/05/11 00:17:57;;;;;;;20.85;15.60;;;;;;;;;;6242836;28;20061;-79
2023/05/11 00:21:04;;;;;;;21.10;15.30;;;;;;;;;;6232801;28;20302;-80
2023/05/11 00:24:26;;;;;;;19.95;15.23;;;;;;;;;;6241097;28;20357;-79
2023/05/11 00:27:30;;;;;;;22.77;16.52;;;;;;;;;;6241845;28;20324;-80
2023/05/11 00:30:37;;;;;;;24.65;16.45;;;;;;;;;;6247050;28;20120;-80
2023/05/11 00:33:39;;;;;;;20.63;16.13;;;;;;;;;;6242393;28;20055;-80
2023/05/11 00:36:43;;;;;;;25.38;17.23;;;;;;;;;;6240651;28;20042;-79
2023/05/11 00:39:47;;;;;;;21.90;16.77;;;;;;;;;;6241709;28;20046;-80
2023/05/11 00:42:49;;;;;;;22.80;16.95;;;;;;;;;;6242399;28;20049;-79
2023/05/11 00:45:57;;;;;;;20.88;15.75;;;;;;;;;;6245378;28;20121;-79
2023/05/11 00:48:59;;;;;;;23.45;16.50;;;;;;;;;;6240255;28;20050;-79
2023/05/11 00:52:03;;;;;;;20.73;15.85;;;;;;;;;;6242561;28;20045;-80
2023/05/11 00:55:05;;;;;;;22.48;16.25;;;;;;;;;;6229947;28;20373;-79
2023/05/11 00:58:07;;;;;;;22.90;16.10;;;;;;;;;;6250263;28;20053;-80
2023/05/11 01:01:34;;;;;;;22.67;16.05;;;;;;;;;;6241646;28;20057;-83
2023/05/11 01:04:47;;;;;;;22.30;16.08;;;;;;;;;;6243844;28;20084;-81
2023/05/11 01:07:58;;;;;;;22.45;16.70;;;;;;;;;;6241765;28;20790;-82
2023/05/11 01:11:06;;;;;;;21.08;15.60;;;;;;;;;;6237606;28;20144;-80
2023/05/11 01:14:18;;;;;;;26.45;18.88;;;;;;;;;;6249458;28;20329;-80
2023/05/11 01:17:23;;;;;;;22.48;16.02;;;;;;;;;;6241602;28;20053;-79
2023/05/11 01:20:27;;;;;;;21.55;16.17;;;;;;;;;;6240524;28;20218;-80
2023/05/11 01:27:40;;;;;;;19.83;14.82;;;;;;;;;;6233649;28;20041;-82
2023/05/11 01:30:48;;;;;;;20.25;14.35;;;;;;;;;;6242924;28;20057;-82
2023/05/11 01:33:55;;;;;;;21.30;15.32;;;;;;;;;;6241513;28;20084;-82
2023/05/11 01:37:05;;;;;;;21.15;15.55;;;;;;;;;;6242350;28;20058;-79
2023/05/11 01:40:26;;;;;;;19.55;14.48;;;;;;;;;;6241531;28;20058;-83
2023/05/11 01:43:35;;;;;;;20.85;13.95;;;;;;;;;;6240171;28;20049;-81
2023/05/11 01:46:41;;;;;;;19.02;14.05;;;;;;;;;;6242574;28;20053;-81
2023/05/11 01:49:49;;;;;;;22.75;15.68;;;;;;;;;;6240981;28;20079;-81
2023/05/11 01:53:09;;;;;;;21.08;15.30;;;;;;;;;;6237641;28;20052;-82
2023/05/11 01:56:11;;;;;;;22.98;14.93;;;;;;;;;;6231498;28;20065;-83
2023/05/11 01:59:49;;;;;;;23.05;15.32;;;;;;;;;;6255655;28;20058;-80
2023/05/11 02:02:57;;;;;;;21.27;14.98;;;;;;;;;;6238492;28;20060;-83
2023/05/11 02:09:43;;;;;;;19.02;14.07;;;;;;;;;;6241732;28;20239;-82
2023/05/11 02:12:51;;;;;;;20.20;14.00;;;;;;;;;;6240597;28;20049;-82
2023/05/11 02:16:09;;;;;;;20.27;14.77;;;;;;;;;;6241571;28;20049;-81
2023/05/11 02:19:40;;;;;;;20.88;13.70;;;;;;;;;;6238833;28;20075;-82
2023/05/11 02:23:04;;;;;;;21.02;13.55;;;;;;;;;;6188169;28;20053;-81
2023/05/11 02:26:06;;;;;;;23.48;14.10;;;;;;;;;;6214276;28;20099;-82
2023/05/11 02:29:33;;;;;;;20.85;14.70;;;;;;;;;;6241705;28;20242;-82
2023/05/11 02:32:38;;;;;;;18.88;13.80;;;;;;;;;;6248098;28;20088;-83
2023/05/11 02:35:43;;;;;;;18.50;13.10;;;;;;;;;;6241307;28;20065;-80
2023/05/11 02:38:47;;;;;;;16.50;12.32;;;;;;;;;;6242406;28;20054;-83
2023/05/11 02:41:56;;;;;;;18.77;12.82;;;;;;;;;;6246373;28;20053;-82
2023/05/11 02:45:12;;;;;;;16.88;12.15;;;;;;;;;;6244066;28;20171;-82
2023/05/11 02:48:31;;;;;;;;;;;;;;;;;;;;;
2023/05/11 02:51:39;;;;;;;15.20;10.45;;;;;;;;;;6239212;28;20057;-80
2023/05/11 02:58:11;;;;;;;;;;;;;;;;;;;;;
2023/05/11 03:01:13;;;;;;;11.77;8.27;;;;;;;;;;6238649;28;20676;-82
2023/05/11 03:04:20;;;;;;;9.75;7.10;;;;;;;;;;6237053;28;20113;-82
2023/05/11 03:07:23;;;;;;;10.95;7.30;;;;;;;;;;6207305;28;20482;-82
2023/05/11 03:10:28;;;;;;;11.73;8.10;;;;;;;;;;6188205;28;20109;-82
2023/05/11 03:13:54;;;;;;;12.88;8.50;;;;;;;;;;6186212;28;20043;-82
2023/05/11 03:17:17;;;;;;;13.45;8.07;;;;;;;;;;6168376;28;20251;-82
2023/05/11 03:20:41;;;;;;;11.73;7.75;;;;;;;;;;6189119;28;20118;-82
2023/05/11 03:23:48;;;;;;;10.57;7.13;;;;;;;;;;6183468;28;20070;-82
2023/05/11 03:27:11;;;;;;;10.27;7.15;;;;;;;;;;6173354;28;20426;-80
2023/05/11 03:30:24;;;;;;;;;;;;;;;;;;;;;
2023/05/11 03:37:43;;;;;;;11.38;7.55;;;;;;;;;;6183655;28;20069;-82
2023/05/11 03:41:01;;;;;;;12.48;7.47;;;;;;;;;;6225964;28;20105;-82
2023/05/11 03:48:07;;;;;;;10.38;7.43;;;;;;;;;;6249297;28;20802;-81
2023/05/11 03:59:29;;;;;;;8.27;6.22;;;;;;;;;;6177080;28;20192;-81
2023/05/11 04:03:23;;;;;;;11.48;6.50;;;;;;;;;;6172751;28;20185;-82
2023/05/11 04:06:27;;;;;;;11.50;6.22;;;;;;;;;;6192681;28;20405;-82
2023/05/11 04:12:59;;;;;;;6.63;5.13;;;;;;;;;;6179575;28;20054;-81
2023/05/11 04:16:14;;;;;;;;;;;;;;;;;;;;;
2023/05/11 04:20:10;;;;;;;7.75;4.78;;;;;;;;;;6109714;28;20042;-83
2023/05/11 04:24:12;;;;;;;6.22;4.30;;;;;;;;;;6199011;28;20046;-82
2023/05/11 04:30:56;;;;;;;6.88;4.07;;;;;;;;;;6168293;28;20326;-83
2023/05/11 04:33:59;;;;;;;5.22;4.07;;;;;;;;;;6207258;28;20345;-82
2023/05/11 04:37:06;;;;;;;5.00;3.70;;;;;;;;;;6243501;28;20061;-82
2023/05/11 04:40:09;;;;;;;6.18;4.55;;;;;;;;;;6240485;28;20060;-83
2023/05/11 04:43:14;;;;;;;5.15;3.65;;;;;;;;;;6243530;28;20053;-82
2023/05/11 04:46:21;;;;;;;5.07;3.90;;;;;;;;;;6243452;28;20073;-83
2023/05/11 04:49:24;;;;;;;4.88;3.65;;;;;;;;;;6241645;28;20045;-82
2023/05/11 04:52:28;;;;;;;5.95;3.80;;;;;;;;;;6239486;28;20096;-84
2023/05/11 04:55:38;;;;;;;5.07;3.47;;;;;;;;;;6243152;28;20064;-83
2023/05/11 04:59:07;;;;;;;5.90;3.70;;;;;;;;;;6211189;28;20093;-85
2023/05/11 05:09:26;;;;;;;5.65;3.42;;;;;;;;;;6172415;28;20113;-79
2023/05/11 05:16:15;;;;;;;5.78;3.63;;;;;;;;;;6190942;28;20282;-82
2023/05/11 05:19:22;;;;;;;5.00;3.70;;;;;;;;;;6187430;28;20465;-80
2023/05/11 05:22:24;;;;;;;6.70;3.92;;;;;;;;;;6185182;28;20057;-83
2023/05/11 05:28:44;;;;;;;6.35;4.55;;;;;;;;;;6208523;28;20348;-80
2023/05/11 05:31:48;;;;;;;8.63;5.13;;;;;;;;;;6217239;28;20062;-81
2023/05/11 05:34:50;;;;;;;6.28;4.35;;;;;;;;;;6214824;28;20062;-81
2023/05/11 05:37:51;;;;;;;7.00;4.28;;;;;;;;;;6212870;28;20058;-81
2023/05/11 05:41:04;;;;;;;6.30;4.30;;;;;;;;;;6213282;28;20058;-81
2023/05/11 05:44:05;;;;;;;8.32;4.95;;;;;;;;;;6214626;28;20084;-80
2023/05/11 05:47:10;;;;;;;6.18;4.68;;;;;;;;;;6216049;28;20304;-81
2023/05/11 05:50:12;;;;;;;6.40;4.28;;;;;;;;;;6216357;28;20328;-80
2023/05/11 05:53:14;;;;;;;6.60;4.57;;;;;;;;;;6214620;28;20050;-81
2023/05/11 05:56:16;;;;;;;6.30;4.70;;;;;;;;;;6213577;28;20049;-81
2023/05/11 05:59:22;;;;;;;5.82;4.70;;;;;;;;;;6215765;28;20050;-82
2023/05/11 06:02:25;;;;;;;5.93;4.45;;;;;;;;;;6241124;28;20077;-81
2023/05/11 06:05:28;;;;;;;5.60;4.10;;;;;;;;;;6236925;28;20050;-81
2023/05/11 06:08:36;;;;;;;7.47;4.70;;;;;;;;;;6242135;28;20053;-82
2023/05/11 06:11:56;;;;;;;6.20;4.57;;;;;;;;;;6236554;28;20060;-82
2023/05/11 06:18:17;;;;;;;6.30;4.65;;;;;;;;;;6229259;28;20045;-84
2023/05/11 06:21:19;;;;;;;6.03;4.17;;;;;;;;;;6239233;28;20045;-81
2023/05/11 06:24:21;;;;;;;6.15;4.72;;;;;;;;;;6239232;28;20038;-81
2023/05/11 06:27:26;;;;;;;6.60;4.60;;;;;;;;;;6240388;28;20117;-82
2023/05/11 06:30:28;;;;;;;7.97;5.03;;;;;;;;;;6239153;28;20142;-81
2023/05/11 06:33:37;;;;;;;7.10;4.03;;;;;;;;;;6236421;28;20056;-82
2023/05/11 06:36:39;;;;;;;7.20;5.20;;;;;;;;;;6237457;28;20051;-82
2023/05/11 06:39:41;;;;;;;5.50;4.38;;;;;;;;;;6237143;28;20064;-82
2023/05/11 06:42:43;;;;;;;6.60;4.85;;;;;;;;;;6238850;28;20053;-82
2023/05/11 06:45:45;;;;;;;7.20;4.53;;;;;;;;;;6238865;28;20148;-82
2023/05/11 06:48:49;;;;;;;6.18;4.47;;;;;;;;;;6237880;28;20187;-82
2023/05/11 06:51:50;;;;;;;7.18;4.25;;;;;;;;;;6240722;28;20408;-82
2023/05/11 06:54:52;;;;;;;8.35;4.55;;;;;;;;;;6236883;28;20045;-82
2023/05/11 06:57:54;;;;;;;6.40;4.65;;;;;;;;;;6230820;28;20226;-82
2023/05/11 07:00:56;;;;;;;6.72;4.97;;;;;;;;;;6239249;28;20068;-82
2023/05/11 07:03:59;;;;;;;8.38;4.75;;;;;;;;;;6239597;28;20077;-81
2023/05/11 07:10:34;;;;;;;8.95;5.60;;;;;;;;;;6222351;28;20306;-82
2023/05/11 07:13:49;;;;;;;7.07;5.47;;;;;;;;;;6256189;28;20065;-81
2023/05/11 07:16:52;;;;;;;;;;;;;;;;;;6267055;28;20334;-81
2023/05/11 07:20:03;;;;;;;9.65;5.97;;;;;;;;;;6243340;28;19928;-82
2023/05/11 07:23:05;;;;;;;9.13;5.63;;;;;;;;;;6243020;28;20065;-81
2023/05/11 07:26:08;;;;;;;8.88;5.20;;;;;;;;;;6243678;28;20065;-81
2023/05/11 07:32:44;;;;;;;5.55;3.95;;;;;;;;;;6234455;28;20364;-82
2023/05/11 07:35:47;;;;;;;6.10;4.32;;;;;;;;;;6245330;28;20053;-81
2023/05/11 07:38:49;;;;;;;17.00;4.32;;;;;;;;;;6243258;28;20648;-81
2023/05/11 07:41:51;;;;;;;4.82;3.78;;;;;;;;;;6241179;28;20087;-81
2023/05/11 07:44:53;;;;;;;4.95;3.83;;;;;;;;;;6244400;28;20160;-81
2023/05/11 07:47:55;;;;;;;5.45;3.72;;;;;;;;;;6243501;28;20045;-81
2023/05/11 07:50:59;;;;;;;5.43;4.20;;;;;;;;;;6244349;28;20082;-82
2023/05/11 07:54:03;;;;;;;5.75;4.05;;;;;;;;;;6243312;28;20104;-82
2023/05/11 07:57:05;;;;;;;5.35;3.60;;;;;;;;;;6242351;28;20053;-81
2023/05/11 08:00:08;;;;;;;4.70;3.55;;;;;;;;;;6241546;28;20060;-82
2023/05/11 08:03:18;;;;;;;5.80;3.90;;;;;;;;;;6241874;28;20057;-82
2023/05/11 08:09:41;;;;;;;6.18;3.95;;;;;;;;;;6225646;28;20054;-81
2023/05/11 08:12:44;;;;;;;4.63;3.30;;;;;;;;;;6241151;28;20348;-81
2023/05/11 08:15:46;;;;;;;4.20;3.20;;;;;;;;;;6266187;28;20534;-81
2023/05/11 08:18:51;;;;;;;3.10;1.90;;;;;;;;;;6242139;28;20045;-82
2023/05/11 08:21:55;;;;;;;4.15;2.83;;;;;;;;;;6242487;28;20277;-81
2023/05/11 08:25:08;;;;;;;;;;;;;;;;;;;;;
2023/05/11 08:28:16;;;;;;;5.15;3.28;;;;;;;;;;6241754;28;19929;-81
2023/05/11 08:31:45;;;;;;;6.20;2.97;;;;;;;;;;6242703;28;20117;-82
2023/05/11 08:34:54;;;;;;;5.15;2.83;;;;;;;;;;6239503;28;20119;-82
2023/05/11 08:38:00;;;;;;;4.65;2.78;;;;;;;;;;6242776;28;20113;-81
2023/05/11 08:41:14;;;;;;;3.45;2.47;;;;;;;;;;6242779;28;20329;-81
2023/05/11 08:44:16;;;;;;;2.60;2.00;;;;;;;;;;6241437;28;20050;-80
2023/05/11 08:48:09;;;;;;;4.35;2.30;;;;;;;;;;6243602;28;20095;-80
2023/05/11 08:51:25;;;;;;;;;;;;;;;;;;;;;
2023/05/11 08:58:18;;;;;;;2.47;1.67;;;;;;;;;;6214888;28;20120;-81
2023/05/11 09:01:23;;;;;;;2.63;1.80;;;;;;;;;;6220638;28;20319;-82
2023/05/11 09:04:26;;;;;;;2.40;1.60;;;;;;;;;;6239855;28;20261;-82
2023/05/11 09:07:28;;;;;;;2.23;1.57;;;;;;;;;;6241152;28;20050;-81
2023/05/11 09:10:31;;;;;;;2.22;1.80;;;;;;;;;;6243878;28;20432;-81
2023/05/11 09:13:34;;;;;;;2.13;1.73;;;;;;;;;;6238863;28;20113;-81
2023/05/11 09:16:36;;;;;;;2.38;1.65;;;;;;;;;;6241703;28;20056;-81
2023/05/11 09:19:57;;;;;;;2.00;1.77;;;;;;;;;;6241039;28;20288;-81
2023/05/11 09:23:10;;;;;;;2.72;1.92;;;;;;;;;;6239332;28;20057;-80
2023/05/11 09:26:15;;;;;;;;;;;;;;;;;;6242722;28;20076;-81
2023/05/11 09:29:21;;;;;;;2.30;1.63;;;;;;;;;;6241065;28;19972;-82
2023/05/11 09:32:22;;;;;;;2.25;1.80;;;;;;;;;;6239582;28;20057;-81
2023/05/11 09:35:25;;;;;;;2.40;1.92;;;;;;;;;;6240397;28;20052;-81
2023/05/11 09:38:27;;;;;;;1.80;1.60;;;;;;;;;;6236755;28;20062;-81
2023/05/11 09:41:32;;;;;;;1.65;1.35;;;;;;;;;;6241298;28;20056;-81
2023/05/11 09:44:35;;;;;;;2.60;1.90;;;;;;;;;;6242346;28;20053;-80
2023/05/11 09:47:39;;;;;;;3.08;1.48;;;;;;;;;;6241094;28;20074;-80
2023/05/11 09:50:41;;;;;;;;;;;;;;;;;;6241419;28;20057;-81
2023/05/11 09:53:44;;;;;;;2.20;1.40;;;;;;;;;;6239547;28;19925;-80
2023/05/11 09:56:48;;;;;;;2.05;1.70;;;;;;;;;;6240408;28;20057;-81
2023/05/11 09:59:51;;;;;;;1.73;1.40;;;;;;;;;;6239581;28;20342;-80
2023/05/11 10:03:00;;;;;;;1.98;1.52;;;;;;;;;;6242657;28;20057;-81
2023/05/11 10:06:03;;;;;;;2.13;1.40;;;;;;;;;;6240267;28;20229;-80
2023/05/11 10:09:09;;;;;;;2.50;1.90;;;;;;;;;;6241593;28;20049;-80
2023/05/11 10:12:11;;;;;;;2.78;1.70;;;;;;;;;;6239882;28;20088;-80
2023/05/11 10:15:15;;;;;;;3.10;2.00;;;;;;;;;;6239870;28;20238;-80
2023/05/11 10:18:17;;;;;;;3.85;2.15;;;;;;;;;;6239450;28;20069;-80
2023/05/11 10:21:19;;;;;;;4.85;3.70;;;;;;;;;;6240419;28;20046;-80
2023/05/11 10:24:21;;;;;;;5.13;3.20;;;;;;;;;;6238803;28;20064;-81
2023/05/11 10:27:22;;;;;;;4.55;3.20;;;;;;;;;;6240460;28;20058;-80
2023/05/11 10:30:26;;;;;;;4.97;3.90;;;;;;;;;;6237703;28;20045;-80
2023/05/11 10:33:28;;;;;;;3.58;3.17;;;;;;;;;;6240986;28;20319;-81
2023/05/11 10:36:30;;;;;;;7.80;3.67;;;;;;;;;;6238872;28;20140;-81
2023/05/11 10:39:32;;;;;;;5.25;3.60;;;;;;;;;;6236810;28;20252;-81
2023/05/11 10:42:55;;;;;;;5.47;3.30;;;;;;;;;;6237389;28;20265;-80
2023/05/11 10:46:07;;;;;;;4.80;3.60;;;;;;;;;;6257464;28;20161;-80
2023/05/11 10:49:33;;;;;;;4.25;3.40;;;;;;;;;;6239033;28;20057;-81
2023/05/11 10:53:01;;;;;;;5.00;3.58;;;;;;;;;;6237673;28;20145;-81
2023/05/11 10:56:26;;;;;;;4.75;3.58;;;;;;;;;;6238977;28;20321;-81
2023/05/11 11:03:16;;;;;;;6.82;4.13;;;;;;;;;;6128547;28;20065;-81
2023/05/11 11:06:24;;;;;;;5.88;4.50;;;;;;;;;;6138893;28;20052;-81
2023/05/11 11:09:26;;;;;;;7.50;5.65;;;;;;;;;;6140012;28;20137;-82
2023/05/11 11:12:37;;;;;;;4.22;3.70;;;;;;;;;;6139005;28;20132;-82
2023/05/11 11:16:13;;;;;;;5.97;4.72;;;;;;;;;;6140663;28;20051;-81
2023/05/11 11:19:40;;;;;;;4.65;3.95;;;;;;;;;;6140374;28;20418;-81
2023/05/11 11:22:46;;;;;;;5.88;3.30;;;;;;;;;;6139343;28;20056;-82
2023/05/11 11:25:53;;;;;;;5.60;3.10;;;;;;;;;;6138834;28;20371;-83
2023/05/11 11:29:14;;;;;;;4.28;3.88;;;;;;;;;;6129525;28;20123;-82
2023/05/11 11:32:26;;;;;;;15.00;3.90;;;;;;;;;;6138460;28;20122;-83
2023/05/11 11:35:47;;;;;;;4.15;3.60;;;;;;;;;;6135306;28;20082;-82
2023/05/11 11:39:00;;;;;;;5.28;3.40;;;;;;;;;;6154809;28;20241;-83
2023/05/11 11:42:02;;;;;;;3.53;2.87;;;;;;;;;;6238973;28;20053;-82
2023/05/11 11:45:29;;;;;;;3.75;3.35;;;;;;;;;;6239312;28;20340;-82
2023/05/11 11:48:34;;;;;;;5.85;3.33;;;;;;;;;;6238624;28;20053;-82
2023/05/11 11:51:39;;;;;;;4.32;2.67;;;;;;;;;;6240017;28;20049;-77
2023/05/11 11:54:41;;;;;;;4.70;3.90;;;;;;;;;;6240085;28;20072;-83
2023/05/11 11:57:50;;;;;;;4.88;4.40;;;;;;;;;;6239301;28;20057;-76
2023/05/11 12:00:55;;;;;;;8.15;5.47;;;;;;;;;;6238297;28;20061;-82
2023/05/11 12:04:23;;;;;;;3.17;2.70;;;;;;;;;;6241751;28;20233;-84
2023/05/11 12:07:34;;;;;;;3.33;2.15;;;;;;;;;;6246630;28;20062;-82
2023/05/11 12:10:36;;;;;;;2.85;2.20;;;;;;;;;;6234072;28;20058;-82
2023/05/11 12:13:38;;;;;;;4.88;3.08;;;;;;;;;;6243857;28;20041;-83
2023/05/11 12:16:40;;;;;;;2.33;2.13;;;;;;;;;;6243015;28;20308;-83
2023/05/11 12:19:45;;;;;;;5.10;2.45;;;;;;;;;;6245329;28;20061;-85
2023/05/11 12:22:52;;;;;;;3.08;2.15;;;;;;;;;;6240421;28;20056;-85
2023/05/11 12:26:03;;;;;;;2.40;2.20;;;;;;;;;;6242775;28;20125;-82
2023/05/11 12:29:13;;;;;;;2.30;1.80;;;;;;;;;;6241115;28;20103;-84
2023/05/11 12:32:17;;;;;;;5.15;1.75;;;;;;;;;;6234127;28;20132;-81
2023/05/11 12:35:23;;;;;;;1.52;1.40;;;;;;;;;;6241561;28;20049;-86
2023/05/11 12:38:28;;;;;;;1.85;1.45;;;;;;;;;;6243653;28;20053;-82
2023/05/11 12:41:33;;;;;;;2.70;1.98;;;;;;;;;;6239022;28;20118;-81
2023/05/11 12:44:35;;;;;;;1.63;1.50;;;;;;;;;;6243032;28;20045;-80
2023/05/11 12:47:36;;;;;;;2.08;1.40;;;;;;;;;;6244687;28;20241;-88
2023/05/11 12:50:40;;;;;;;2.08;1.30;;;;;;;;;;6241472;28;20045;-79
2023/05/11 12:53:43;;;;;;;1.95;1.50;;;;;;;;;;6240217;28;20045;-79
2023/05/11 12:56:48;;;;;;;2.05;1.67;;;;;;;;;;6241937;28;20100;-80
2023/05/11 13:03:32;;;;;;;1.60;1.38;;;;;;;;;;6243112;28;20061;-84
2023/05/11 13:06:35;;;;;;;1.92;1.73;;;;;;;;;;6232098;28;20046;-83
2023/05/11 13:09:41;;;;;;;2.85;1.75;;;;;;;;;;6242046;28;20062;-83
2023/05/11 13:12:50;;;;;;;2.90;2.50;;;;;;;;;;6239288;28;20334;-82
2023/05/11 13:15:52;;;;;;;101.32;63.25;;;;;;;;;;6246458;28;20226;-81
2023/05/11 13:18:57;;;;;;;20.63;13.75;;;;;;;;;;6240636;28;20056;-78
2023/05/11 13:21:59;;;;;;;33.25;19.15;;;;;;;;;;6260691;28;20059;-77
2023/05/11 13:25:03;;;;;;;28.95;20.60;;;;;;;;;;6243027;28;20064;-78
2023/05/11 13:28:04;;;;;;;11.77;8.75;;;;;;;;;;6241233;28;20058;-78
2023/05/11 13:31:06;;;;;;;17.50;13.10;;;;;;;;;;6241990;28;21340;-77
2023/05/11 13:34:08;;;;;;;5.93;5.22;;;;;;;;;;6241028;28;20057;-83
2023/05/11 13:37:10;;;;;;;9.18;5.32;;;;;;;;;;6241567;28;20057;-83
2023/05/11 13:40:13;;;;;;;5.53;4.63;;;;;;;;;;6239425;28;20084;-82
2023/05/11 13:43:15;;;;;;;6.32;5.20;;;;;;;;;;6240378;28;20112;-83
2023/05/11 13:46:17;;;;;;;6.75;5.13;;;;;;;;;;6241419;28;20068;-82
2023/05/11 13:49:19;;;;;;;8.85;5.75;;;;;;;;;;6242808;28;20053;-83
2023/05/11 13:52:21;;;;;;;7.68;5.57;;;;;;;;;;6241738;28;20068;-82
2023/05/11 13:55:24;;;;;;;22.77;7.57;;;;;;;;;;6243473;28;20353;-82
2023/05/11 13:58:26;;;;;;;10.82;7.65;;;;;;;;;;6240347;28;20073;-81
2023/05/11 14:01:28;;;;;;;24.20;9.43;;;;;;;;;;6240394;28;20049;-82
2023/05/11 14:04:33;;;;;;;24.65;11.00;;;;;;;;;;6241151;28;20049;-87
2023/05/11 14:07:38;;;;;;;17.75;11.85;;;;;;;;;;6241484;28;20136;-88
2023/05/11 14:10:41;;;;;;;19.92;13.25;;;;;;;;;;6241938;28;20062;-86
2023/05/11 14:13:43;;;;;;;22.48;14.30;;;;;;;;;;6239920;28;20325;-86
2023/05/11 14:16:45;;;;;;;24.48;16.02;;;;;;;;;;6239556;28;20049;-90
2023/05/11 14:19:47;;;;;;;22.63;16.02;;;;;;;;;;6241762;28;20061;-88
2023/05/11 14:22:48;;;;;;;21.58;15.07;;;;;;;;;;6240743;28;20041;-90
2023/05/11 14:25:52;;;;;;;23.42;15.70;;;;;;;;;;6241368;28;20045;-85
2023/05/11 14:28:53;;;;;;;21.25;14.63;;;;;;;;;;6241721;28;20057;-88
2023/05/11 14:31:55;;;;;;;23.38;14.95;;;;;;;;;;6241965;28;20053;-88
2023/05/11 14:34:57;;;;;;;19.63;13.25;;;;;;;;;;6240290;28;20046;-90
2023/05/11 14:37:59;;;;;;;15.32;11.57;;;;;;;;;;6238393;28;20068;-88
2023/05/11 14:41:02;;;;;;;17.20;11.93;;;;;;;;;;6238393;28;20051;-86
2023/05/11 14:44:04;;;;;;;17.92;12.45;;;;;;;;;;6240861;28;20088;-88
2023/05/11 14:47:07;;;;;;;19.20;12.00;;;;;;;;;;6240780;28;20048;-89
2023/05/11 14:50:10;;;;;;;17.20;11.33;;;;;;;;;;6241663;28;20071;-86
2023/05/11 14:53:12;;;;;;;13.27;10.13;;;;;;;;;;6239271;28;20479;-79
2023/05/11 14:56:15;;;;;;;50.30;31.70;;;;;;;;;;6243275;28;20277;-82
2023/05/11 14:59:16;;;;;;;22.58;11.52;;;;;;;;;;6241248;28;20045;-79
2023/05/11 15:02:18;;;;;;;26.23;16.27;;;;;;;;;;6240809;28;20104;-81
2023/05/11 15:05:20;;;;;;;10.75;8.05;;;;;;;;;;6239054;28;20463;-80
2023/05/11 15:08:22;;;;;;;47.58;27.70;;;;;;;;;;6242665;28;20050;-82
2023/05/11 15:11:25;;;;;;;11.20;6.60;;;;;;;;;;6243534;28;20038;-84
2023/05/11 15:14:28;;;;;;;5.95;4.85;;;;;;;;;;6239022;28;20104;-84
2023/05/11 15:17:30;;;;;;;6.55;5.00;;;;;;;;;;6240743;28;20261;-85
2023/05/11 15:20:33;;;;;;;6.00;4.55;;;;;;;;;;6237502;28;20412;-84
2023/05/11 15:23:35;;;;;;;4.83;4.30;;;;;;;;;;6238818;28;20061;-84
2023/05/11 15:26:38;;;;;;;5.45;4.07;;;;;;;;;;6239990;28;20671;-83
2023/05/11 15:29:39;;;;;;;5.57;3.50;;;;;;;;;;6239994;28;20091;-84
2023/05/11 15:32:41;;;;;;;6.82;3.72;;;;;;;;;;6237679;28;20459;-83
2023/05/11 15:35:43;;;;;;;4.32;3.40;;;;;;;;;;6240725;28;20068;-83
2023/05/11 15:38:45;;;;;;;4.88;3.30;;;;;;;;;;6241846;28;20100;-85
2023/05/11 15:41:48;;;;;;;4.18;2.83;;;;;;;;;;6243948;28;20050;-83
2023/05/11 15:44:50;;;;;;;6.03;3.00;;;;;;;;;;6242178;28;20128;-84
2023/05/11 15:47:52;;;;;;;3.80;2.42;;;;;;;;;;6240737;28;20066;-82
2023/05/11 15:50:54;;;;;;;4.85;2.50;;;;;;;;;;6243788;28;20049;-83
2023/05/11 15:53:56;;;;;;;3.30;1.95;;;;;;;;;;6244333;28;20152;-83
2023/05/11 15:56:59;;;;;;;2.17;1.70;;;;;;;;;;6242496;28;20049;-84
2023/05/11 16:00:00;;;;;;;3.07;1.93;;;;;;;;;;6241192;28;20349;-84
2023/05/11 16:03:02;;;;;;;2.78;1.60;;;;;;;;;;6243507;28;20789;-84
2023/05/11 16:06:05;;;;;;;1.55;1.10;;;;;;;;;;6242927;28;20073;-83
2023/05/11 16:09:08;;;;;;;1.90;1.23;;;;;;;;;;6243951;28;20075;-82
2023/05/11 16:12:11;;;;;;;1.25;0.93;;;;;;;;;;6243197;28;20038;-83
2023/05/11 16:15:13;;;;;;;1.58;0.98;;;;;;;;;;6241899;28;20069;-84
2023/05/11 16:18:18;;;;;;;1.67;1.20;;;;;;;;;;6241955;28;20061;-82
2023/05/11 16:21:20;;;;;;;2.42;1.20;;;;;;;;;;6243220;28;20125;-82
2023/05/11 16:24:21;;;;;;;3.25;1.20;;;;;;;;;;6240686;28;20053;-82
2023/05/11 16:27:25;;;;;;;2.22;1.27;;;;;;;;;;6243679;28;20045;-82
2023/05/11 16:30:27;;;;;;;1.45;1.25;;;;;;;;;;6244348;28;20127;-82
2023/05/11 16:33:28;;;;;;;1.45;1.10;;;;;;;;;;6244414;28;20061;-82
2023/05/11 16:36:30;;;;;;;2.55;0.90;;;;;;;;;;6241377;28;20057;-82
2023/05/11 16:39:32;;;;;;;5.88;1.20;;;;;;;;;;6240617;28;20365;-82
2023/05/11 16:42:35;;;;;;;3.38;1.10;;;;;;;;;;6244202;28;20061;-81
2023/05/11 16:45:37;;;;;;;3.95;2.83;;;;;;;;;;6239924;28;20038;-81
2023/05/11 16:48:40;;;;;;;6.18;4.32;;;;;;;;;;6242599;28;20058;-81
2023/05/11 16:51:43;;;;;;;6.00;4.45;;;;;;;;;;6255640;28;20120;-81
2023/05/11 16:54:48;;;;;;;5.65;4.40;;;;;;;;;;6247182;28;20054;-81
2023/05/11 16:57:52;;;;;;;6.45;4.03;;;;;;;;;;6241719;28;20061;-81
2023/05/11 17:00:53;;;;;;;6.23;3.83;;;;;;;;;;6244189;28;20056;-81
2023/05/11 17:03:58;;;;;;;5.38;3.78;;;;;;;;;;6244838;28;20050;-81
2023/05/11 17:07:00;;;;;;;7.15;4.65;;;;;;;;;;6240996;28;20131;-80
2023/05/11 17:10:02;;;;;;;6.57;4.05;;;;;;;;;;6242130;28;20060;-82
2023/05/11 17:13:05;;;;;;;5.68;3.92;;;;;;;;;;6241166;28;20059;-80
2023/05/11 17:16:07;;;;;;;4.85;3.47;;;;;;;;;;6243316;28;20305;-81
2023/05/11 17:19:08;;;;;;;4.53;3.13;;;;;;;;;;6242926;28;20061;-81
2023/05/11 17:22:13;;;;;;;3.85;2.92;;;;;;;;;;6240464;28;20057;-81
2023/05/11 17:25:15;;;;;;;5.97;3.33;;;;;;;;;;6238776;28;20049;-81
2023/05/11 17:28:19;;;;;;;4.38;2.80;;;;;;;;;;6241397;28;20057;-81
2023/05/11 17:31:21;;;;;;;3.47;2.60;;;;;;;;;;6239462;28;20234;-81
2023/05/11 17:34:22;;;;;;;2.40;1.70;;;;;;;;;;6238941;28;20480;-80
2023/05/11 17:37:24;;;;;;;2.60;1.70;;;;;;;;;;6241044;28;20091;-80
2023/05/11 17:40:26;;;;;;;2.33;1.58;;;;;;;;;;6238746;28;20400;-82
2023/05/11 17:43:29;;;;;;;1.77;1.17;;;;;;;;;;6245031;28;20051;-81
2023/05/11 17:46:31;;;;;;;2.45;1.27;;;;;;;;;;6241173;28;20364;-81
2023/05/11 17:49:33;;;;;;;2.45;0.80;;;;;;;;;;6241052;28;20344;-81
2023/05/11 17:52:35;;;;;;;1.52;1.02;;;;;;;;;;6239144;28;21609;-80
2023/05/11 17:55:38;;;;;;;2.20;1.20;;;;;;;;;;6240187;28;20097;-81
2023/05/11 17:58:42;;;;;;;1.98;1.20;;;;;;;;;;6239409;28;20229;-81
2023/05/11 18:01:45;;;;;;;;;;;;;;;;;;6240440;28;20081;-82
2023/05/11 18:04:47;;;;;;;3.28;1.35;;;;;;;;;;6240711;28;20144;-80
2023/05/11 18:07:49;;;;;;;1.75;1.13;;;;;;;;;;6241404;28;20061;-81
2023/05/11 18:10:52;;;;;;;1.85;0.98;;;;;;;;;;6242347;28;20057;-81
2023/05/11 18:13:56;;;;;;;1.25;0.75;;;;;;;;;;6240382;28;20054;-81
2023/05/11 18:16:57;;;;;;;1.80;1.02;;;;;;;;;;6233820;28;20049;-81
2023/05/11 18:19:59;;;;;;;2.65;0.90;;;;;;;;;;6241682;28;20057;-81
2023/05/11 18:23:01;;;;;;;4.38;1.20;;;;;;;;;;6240371;28;20277;-85
2023/05/11 18:26:03;;;;;;;1.58;1.30;;;;;;;;;;6239662;28;20103;-84
2023/05/11 18:29:09;;;;;;;1.85;1.10;;;;;;;;;;6248427;28;20148;-83
2023/05/11 18:32:11;;;;;;;1.23;0.80;;;;;;;;;;6275452;28;20046;-84
2023/05/11 18:35:15;;;;;;;2.17;1.10;;;;;;;;;;6250806;28;20059;-84
2023/05/11 18:38:16;;;;;;;;;;;;;;;;;;6261141;28;20076;-82
2023/05/11 18:41:18;;;;;;;2.75;1.30;;;;;;;;;;6242653;28;19928;-88
2023/05/11 18:44:29;;;;;;;1.73;1.20;;;;;;;;;;6267684;28;20041;-91
2023/05/11 18:47:43;;;;;;;1.92;1.60;;;;;;;;;;6243218;28;20365;-87
2023/05/11 18:50:57;;;;;;;2.70;1.63;;;;;;;;;;6243078;28;20225;-86
2023/05/11 18:54:00;;;;;;;3.22;2.22;;;;;;;;;;6243845;28;20048;-81
2023/05/11 18:57:02;;;;;;;5.10;2.90;;;;;;;;;;6244188;28;20060;-88
2023/05/11 19:00:06;;;;;;;4.65;2.33;;;;;;;;;;6242009;28;20342;-81
2023/05/11 19:03:08;;;;;;;3.65;2.58;;;;;;;;;;6239715;28;20366;-82
2023/05/11 19:06:10;;;;;;;5.70;2.50;;;;;;;;;;6242295;28;20057;-81
2023/05/11 19:09:12;;;;;;;4.97;2.50;;;;;;;;;;6240097;28;20109;-82
2023/05/11 19:12:16;;;;;;;2.45;2.25;;;;;;;;;;6243236;28;20041;-81
2023/05/11 19:15:19;;;;;;;4.22;2.10;;;;;;;;;;6244337;28;20077;-82
2023/05/11 19:18:21;;;;;;;4.75;2.03;;;;;;;;;;6240605;28;20065;-81
2023/05/11 19:21:23;;;;;;;2.75;1.95;;;;;;;;;;6244703;28;20389;-81
2023/05/11 19:24:26;;;;;;;3.38;2.25;;;;;;;;;;6240230;28;20048;-81
2023/05/11 19:27:28;;;;;;;3.88;2.05;;;;;;;;;;6242255;28;20148;-81
2023/05/11 19:30:31;;;;;;;4.75;1.77;;;;;;;;;;6242691;28;20365;-81
2023/05/11 19:33:33;;;;;;;3.75;2.00;;;;;;;;;;6241254;28;20068;-82
2023/05/11 19:36:35;;;;;;;4.47;1.98;;;;;;;;;;6239668;28;20053;-82
2023/05/11 19:39:37;;;;;;;2.60;1.85;;;;;;;;;;6245051;28;20054;-82
2023/05/11 19:42:39;;;;;;;4.78;1.90;;;;;;;;;;6242114;28;20068;-82
2023/05/11 19:45:44;;;;;;;3.60;2.53;;;;;;;;;;6242597;28;20056;-82
2023/05/11 19:48:45;;;;;;;2.25;1.60;;;;;;;;;;6239421;28;20050;-82
2023/05/11 19:51:47;;;;;;;2.50;1.30;;;;;;;;;;6242375;28;20052;-82